»·PEaware :: APW1392 PHNL-KLGB

APW1392 :: PHNL-KLGB

FLIGHT INFORMATION

Flight Status: Arrived
Operator:
Arrow Cargo
More flights by this operator :: More flights under this callsign
Pilot: Alan J. (5709)
Aircraft: LOCKHEED L-1011 TRI-STAR
(L101)
More flights by this aircraft type
Origin: PHNL Honolulu Intl
United States
Destination: KLGB Long Beach
United States
More flights between these airports :: More routes between these airports
Route: +AWAHI R577 ELKEY SXC
File this flight plan on PilotEdge
Remarks: / L RVSM GNSS
Altitude:
(Current/Filed)
35,000ft
Speed:
(Current/Filed)
490kts
Departed: 15-May-16 12:08 PM
Arrived: 15-May-16 01:02 PM
Distance/Time
Traveled:
2228nm/0:54
Distance/Time
To Go:
Arrived

Flight Plot

Page will automatically refresh every two minutes.

Flight plan parsing failed; only flown route is shown


Map Options




Map Legend


Flown Route
Filed Route
Departure Airport
Arrival Airport
Navaid (VOR, NDB)
Fix

Horizontal Profiles

Position Reports

Time Latitude Longitude Heading Altitude Ground
Speed
15-May-16 12:06 25.379758 -145.268312 66 35138ft 509kts
15-May-16 12:07 25.440006 -145.126635 66 35138ft 507kts
15-May-16 12:08 25.500034 -144.985220 66 35145ft 506kts
15-May-16 12:09 25.559792 -144.843885 65 35144ft 505kts
15-May-16 12:10 32.279254 -123.930644 73 35087ft 521kts
15-May-16 12:11 32.312269 -123.761832 70 35074ft 530kts
15-May-16 12:12 32.347227 -123.591406 71 35071ft 534kts
15-May-16 12:13 32.382018 -123.420115 71 35071ft 535kts
15-May-16 12:14 32.416818 -123.248473 71 35069ft 535kts
15-May-16 12:15 32.451672 -123.076816 71 35056ft 535kts
15-May-16 12:16 32.488268 -122.904071 68 35057ft 533kts
15-May-16 12:16 32.521503 -122.763429 68 35050ft 533kts
15-May-16 12:17 32.560711 -122.593522 69 35050ft 533kts
15-May-16 12:18 32.599462 -122.422986 69 35069ft 532kts
15-May-16 12:19 32.637920 -122.252911 69 35069ft 533kts
15-May-16 12:20 32.676066 -122.082590 69 35060ft 533kts
15-May-16 12:21 32.738293 -121.926693 55 35061ft 522kts
15-May-16 12:22 32.803873 -121.771708 56 35062ft 524kts
15-May-16 12:23 32.870059 -121.616825 56 35061ft 524kts
15-May-16 12:25 32.901037 -121.544232 56 35061ft 524kts
15-May-16 12:26 32.939251 -121.374027 76 35055ft 541kts
15-May-16 12:27 32.964575 -121.197439 74 35052ft 540kts
15-May-16 12:28 32.992397 -121.021110 73 35051ft 540kts
15-May-16 12:29 33.020097 -120.845487 73 35051ft 540kts
15-May-16 12:30 33.047888 -120.669362 73 35049ft 540kts
15-May-16 12:31 33.075240 -120.491812 74 34101ft 557kts
15-May-16 12:32 33.102984 -120.310436 75 31078ft 532kts
15-May-16 12:33 33.128670 -120.140029 75 28075ft 509kts
15-May-16 12:34 33.153102 -119.977792 75 25068ft 479kts
15-May-16 12:35 33.175305 -119.826401 75 22059ft 447kts
15-May-16 12:36 33.196518 -119.683469 76 19056ft 426kts
15-May-16 12:38 33.235325 -119.416200 76 13821ft 377kts
15-May-16 12:39 33.252280 -119.298320 76 12004ft 343kts
15-May-16 12:40 33.267318 -119.192409 76 11007ft 293kts
15-May-16 12:41 33.281492 -119.094633 77 11026ft 299kts
15-May-16 12:42 33.295178 -118.996148 76 11024ft 300kts
15-May-16 12:43 33.309048 -118.897657 77 11024ft 300kts
15-May-16 12:44 33.322738 -118.798972 77 11025ft 300kts
15-May-16 12:45 33.336537 -118.700240 77 11025ft 300kts
15-May-16 12:46 33.357851 -118.605157 64 9428ft 288kts
15-May-16 12:47 33.389425 -118.519574 62 7624ft 274kts
15-May-16 12:48 33.420918 -118.437970 62 5822ft 265kts
15-May-16 12:49 33.451972 -118.359906 62 5031ft 259kts
15-May-16 12:50 33.488383 -118.285213 53 5023ft 260kts
15-May-16 12:51 33.531014 -118.213978 52 5016ft 260kts
15-May-16 12:52 33.569192 -118.150677 52 5012ft 196kts
15-May-16 12:54 33.619898 -118.034121 62 5002ft 197kts
15-May-16 12:55 33.651069 -117.983342 11 3806ft 195kts
15-May-16 12:56 33.700629 -118.002720 316 2099ft 188kts
15-May-16 12:56 33.731671 -118.039226 308 1895ft 174kts
15-May-16 12:57 33.760738 -118.080031 308 1421ft 145kts
15-May-16 12:58 33.788088 -118.115315 310 596ft 141kts
15-May-16 12:59 33.816045 -118.149391 314 76ft 110kts
15-May-16 13:01 33.824157 -118.157181 37 76ft 0kts
15-May-16 13:02 33.824158 -118.157180 37 76ft 0kts
15-May-16 13:03 33.824570 -118.156694 58 76ft 0kts
15-May-16 13:04 33.824587 -118.156677 50 76ft 0kts
15-May-16 13:05 33.824670 -118.158074 267 76ft 11kts
15-May-16 13:06 33.824705 -118.160793 271 76ft 0kts
15-May-16 13:07 33.824643 -118.160893 223 76ft 1kts
15-May-16 13:08 33.824327 -118.160685 138 76ft 3kts
15-May-16 13:09 33.822070 -118.158064 137 76ft 5kts
15-May-16 13:10 33.818044 -118.157360 180 76ft 24kts
15-May-16 13:11 33.813205 -118.157379 178 76ft 0kts

Navigation Log

Ident Type
Flight plan parsing failed, navigation log unavailable